Foley, Minnesota
Current Conditions -  °F | °C
As of 12:53 PM on Thursday 27 Nov 2014 (Local Time) from KSTC Reporting Station
Clear Clear  
Wind Chill:   Ceiling: Unl
Heat Index:   Visibility: 10mi
Dew Point: -5°   Wind: 0mph
Humidity: 60%   Direction: NA
Pressure: 30.44"   Gusts: NA
Location:  45.66°N, 93.91°W
Report Text: KSTC 271853Z 00000KT 10SM CLR M14/M21 A3044 RMK AO2 SLP345 T11441206
Loading
Personal Weather Stations






























Interactive Weather Map New forecast layout! Learn more

10-Day Weather Forecast

Advertisements
Track Severe Weather on mobile